Etusivu
METAR-TAF:

METAR-TAF

Lentoasemat :

Charles City, Iowa, Yhdysvallat

Leveyspiiri: 43-04N, Pituuspiiri: 092-37W, korkeus merenpinnasta: 343 m

Tämänhetkinen sää

Tämä raportti tehtiin 28 minuuttia sitten, kello 12.35 UTC
Tuuli 12 kn etelästä puuskistuen 18 kn:hen
Lämpötila -8°C
Kosteus 73%
Ilmanpaine 1015 hPa
Näkyvyys: 14.5 km
Hajanaisia pilviä 2900 ft:n korkeudessa
Hajonneita pilviä 3400 ft:n korkeudessa
Pilvistä 5000 ft:n korkeudessa

METAR: KCCY 131235Z AUTO 19012G18KT 9SM SCT029 BKN034 OVC050 M08/M12 A2996 RMK AO2

Aika: 07:03 (13:03 UTC)


TAF: puuttuu

Säähavainnot ja -ennusteet yli 4000 lentoasemalta (METAR- ja TAF-raportit).

Käytössä olevat sääasemat on merkitty karttaan keltaisilla ja punaisilla pisteillä.

Aseta hiiri pisteen päälle nähdäksesi sääaseman nimen.

Klikkaa sitten nähdäksesi säähavainnot ja -ennusteet.

Kartan vaihtaminen: klikkaa mustalla rastilla varustettuja vihreitä pisteitä, niin voit zoomata sisään; viivalla varustettua vihreää pistettä, niin voit zoomata ulos tai vihreitä nuolia, niin pääset viereisille kartoille.


METAR-TAF: